createdAt,value
2022-11-16T00:01:48.257Z,53.13
2022-11-16T00:04:15.706Z,46.53
2022-11-16T00:06:43.060Z,54.73
2022-11-16T00:09:23.403Z,54.83
2022-11-16T00:11:56.042Z,54.33
2022-11-16T00:14:25.930Z,54.77
2022-11-16T00:16:53.121Z,50.10
2022-11-16T00:19:20.912Z,54.97
2022-11-16T00:21:48.178Z,56.27
2022-11-16T00:24:17.681Z,49.27
2022-11-16T00:26:45.744Z,52.33
2022-11-16T00:29:15.960Z,49.67
2022-11-16T00:31:44.412Z,47.47
2022-11-16T00:34:12.946Z,49.77
2022-11-16T00:36:40.310Z,49.47
2022-11-16T00:39:10.290Z,46.27
2022-11-16T00:41:37.433Z,47.70
2022-11-16T00:44:04.985Z,53.27
2022-11-16T00:46:32.537Z,50.30
2022-11-16T00:49:01.176Z,45.30
2022-11-16T00:51:28.277Z,49.77
2022-11-16T00:53:55.898Z,47.93
2022-11-16T00:56:23.911Z,47.67
2022-11-16T00:58:51.830Z,47.00
2022-11-16T01:01:19.072Z,46.37
2022-11-16T01:03:47.933Z,42.27
2022-11-16T01:06:16.855Z,47.57
2022-11-16T01:08:44.972Z,43.00
2022-11-16T01:11:41.533Z,43.63
2022-11-16T01:14:09.936Z,45.97
2022-11-16T01:16:37.378Z,46.23
2022-11-16T01:19:05.330Z,47.57
2022-11-16T01:21:33.169Z,48.70
2022-11-16T01:24:00.760Z,50.27
2022-11-16T01:26:28.061Z,53.40
2022-11-16T01:28:55.517Z,51.43
2022-11-16T01:31:23.187Z,52.43
2022-11-16T01:33:52.346Z,59.27
2022-11-16T01:36:23.991Z,58.07
2022-11-16T01:38:55.853Z,53.43
2022-11-16T01:41:27.301Z,56.07
2022-11-16T01:43:59.393Z,55.70
2022-11-16T01:46:32.288Z,59.93
2022-11-16T01:49:13.705Z,57.13
2022-11-16T01:51:44.795Z,66.57
2022-11-16T01:54:14.279Z,65.73
2022-11-16T01:56:54.075Z,61.30
2022-11-16T01:59:43.634Z,56.93
2022-11-16T02:02:16.200Z,58.83
2022-11-16T02:04:46.055Z,57.80
2022-11-16T02:07:27.331Z,62.73
2022-11-16T02:10:06.760Z,57.57
2022-11-16T02:13:12.407Z,59.53
2022-11-16T02:15:52.374Z,64.37
2022-11-16T02:18:41.723Z,60.60
2022-11-16T02:21:15.947Z,62.07
2022-11-16T02:24:11.426Z,64.70
2022-11-16T02:26:48.003Z,65.33
2022-11-16T02:29:23.164Z,59.70
2022-11-16T02:32:22.749Z,64.57
2022-11-16T02:34:57.514Z,62.23
2022-11-16T02:37:27.281Z,66.13
2022-11-16T02:39:58.459Z,60.13
2022-11-16T02:42:50.117Z,59.10
2022-11-16T02:45:22.357Z,61.53
2022-11-16T02:47:53.473Z,58.33
2022-11-16T02:50:23.440Z,59.23
2022-11-16T02:52:51.802Z,62.27
2022-11-16T02:55:19.000Z,55.87
2022-11-16T02:57:51.245Z,54.00
2022-11-16T03:00:31.056Z,55.27
2022-11-16T03:03:01.855Z,56.20
2022-11-16T03:05:35.637Z,49.10
2022-11-16T03:08:17.978Z,57.07
2022-11-16T03:11:09.792Z,48.60
2022-11-16T03:13:38.801Z,57.23
2022-11-16T03:16:22.715Z,59.03
2022-11-16T03:18:52.498Z,52.03
2022-11-16T03:21:30.662Z,61.93
2022-11-16T03:23:57.899Z,57.63
2022-11-16T03:26:32.123Z,59.67
2022-11-16T03:29:11.069Z,57.93
2022-11-16T03:31:46.265Z,55.80
2022-11-16T03:34:20.570Z,52.23
2022-11-16T03:36:50.381Z,58.57
2022-11-16T03:39:26.054Z,53.87
2022-11-16T03:41:54.753Z,56.47
2022-11-16T03:44:22.297Z,55.97
2022-11-16T03:46:49.417Z,50.47
2022-11-16T03:49:21.603Z,50.27
2022-11-16T03:51:49.948Z,51.77
2022-11-16T03:54:17.694Z,57.83
2022-11-16T03:56:44.843Z,55.07
2022-11-16T03:59:13.413Z,46.57
2022-11-16T04:01:44.559Z,49.97
2022-11-16T04:04:33.646Z,47.17
2022-11-16T04:07:20.147Z,53.87
2022-11-16T04:10:05.944Z,45.90
2022-11-16T04:12:52.077Z,49.93
2022-11-16T04:15:38.400Z,52.37
2022-11-16T04:18:26.958Z,42.47
2022-11-16T04:21:14.568Z,47.73
2022-11-16T04:24:00.759Z,52.57
2022-11-16T04:26:56.986Z,50.27
2022-11-16T04:29:24.938Z,38.43
2022-11-16T04:32:10.655Z,35.60
2022-11-16T04:34:56.179Z,39.57
2022-11-16T04:37:43.361Z,37.90
2022-11-16T04:40:12.093Z,37.50
2022-11-16T04:42:39.376Z,35.07
2022-11-16T04:45:25.711Z,32.53
2022-11-16T04:47:53.988Z,23.40
2022-11-16T04:50:25.437Z,23.00
2022-11-16T04:52:52.696Z,23.63
2022-11-16T04:55:20.487Z,23.90
2022-11-16T04:57:49.344Z,25.00
2022-11-16T05:00:17.435Z,23.17
2022-11-16T05:02:45.954Z,23.50
2022-11-16T05:05:13.388Z,24.20
2022-11-16T05:07:43.403Z,26.87
2022-11-16T05:10:16.794Z,26.53
2022-11-16T05:12:44.463Z,27.93
2022-11-16T05:15:11.656Z,29.13
2022-11-16T05:17:39.727Z,28.03
2022-11-16T05:20:30.757Z,32.97
2022-11-16T05:23:03.302Z,33.33
2022-11-16T05:25:36.737Z,27.50
2022-11-16T05:28:07.076Z,31.90
2022-11-16T05:30:38.423Z,28.33
2022-11-16T05:33:05.781Z,32.90
2022-11-16T05:35:37.466Z,41.53
2022-11-16T05:38:04.883Z,38.73
2022-11-16T05:40:35.895Z,40.37
2022-11-16T05:43:03.170Z,39.87
2022-11-16T05:45:35.035Z,45.33
2022-11-16T05:48:02.521Z,41.50
2022-11-16T05:50:29.896Z,38.60
2022-11-16T05:53:06.363Z,41.77
2022-11-16T05:55:35.765Z,43.03
2022-11-16T05:58:03.021Z,47.23
2022-11-16T06:00:30.271Z,41.67
2022-11-16T06:02:59.306Z,42.93
2022-11-16T06:05:30.493Z,43.13
2022-11-16T06:07:59.264Z,41.77
2022-11-16T06:10:26.577Z,47.63
2022-11-16T06:12:54.613Z,48.33
2022-11-16T06:15:21.812Z,48.53
2022-11-16T06:17:49.033Z,45.53
2022-11-16T06:20:16.714Z,44.97
2022-11-16T06:22:45.315Z,40.83
2022-11-16T06:25:13.453Z,42.70
2022-11-16T06:27:43.787Z,48.80
2022-11-16T06:30:14.194Z,42.23
2022-11-16T06:32:41.531Z,40.70
2022-11-16T06:35:09.701Z,44.57
2022-11-16T06:37:38.410Z,40.27
2022-11-16T06:40:08.030Z,36.97
2022-11-16T06:42:39.212Z,45.47
2022-11-16T06:45:07.162Z,39.37
2022-11-16T06:47:39.816Z,33.03
2022-11-16T06:50:08.243Z,38.33
2022-11-16T06:52:35.687Z,33.73
2022-11-16T06:55:03.752Z,34.23
2022-11-16T06:57:35.668Z,30.17
2022-11-16T07:00:05.253Z,25.47
2022-11-16T07:02:37.775Z,22.80
2022-11-16T07:05:06.748Z,20.47
2022-11-16T07:07:34.260Z,19.50
2022-11-16T07:10:02.515Z,19.57
2022-11-16T07:12:31.109Z,18.07
2022-11-16T07:14:59.025Z,19.60
2022-11-16T07:17:29.087Z,14.07
2022-11-16T07:19:56.148Z,16.33
2022-11-16T07:22:23.510Z,18.33
2022-11-16T07:24:51.544Z,17.57
2022-11-16T07:27:20.640Z,15.80
2022-11-16T07:29:50.428Z,16.67
2022-11-16T07:32:49.960Z,15.80
2022-11-16T07:35:28.265Z,14.07
2022-11-16T07:37:56.374Z,11.93
2022-11-16T07:55:54.038Z,6.57
2022-11-16T07:58:24.311Z,9.53
2022-11-16T08:00:51.983Z,8.13
2022-11-16T08:03:23.399Z,6.87
2022-11-16T08:06:00.311Z,5.93
2022-11-16T08:08:27.750Z,7.17
2022-11-16T08:11:02.456Z,5.30
2022-11-16T08:13:34.085Z,8.50
2022-11-16T08:16:08.018Z,5.57
2022-11-16T08:18:37.236Z,4.53
2022-11-16T08:21:06.923Z,6.90
2022-11-16T08:23:34.839Z,3.60
2022-11-16T08:26:03.440Z,3.23
2022-11-16T08:28:31.566Z,5.37
2022-11-16T08:30:59.607Z,5.07
2022-11-16T08:33:29.442Z,3.37
2022-11-16T08:35:58.799Z,3.37
2022-11-16T08:38:25.936Z,4.03
2022-11-16T08:40:56.115Z,4.07
2022-11-16T08:43:24.958Z,2.50
2022-11-16T08:45:56.222Z,5.33
2022-11-16T08:48:23.830Z,2.50
2022-11-16T08:51:16.022Z,2.67
2022-11-16T08:53:39.899Z,3.53
2022-11-16T08:56:09.642Z,4.03
2022-11-16T08:58:38.228Z,3.87
2022-11-16T09:01:13.964Z,4.13
2022-11-16T09:03:41.991Z,5.67
2022-11-16T09:06:10.322Z,7.87
2022-11-16T09:08:39.424Z,4.37
2022-11-16T09:11:08.141Z,6.63
2022-11-16T09:13:35.466Z,3.77
2022-11-16T09:16:03.917Z,5.03
2022-11-16T09:18:31.819Z,3.03
2022-11-16T09:20:59.040Z,4.53
2022-11-16T09:23:26.782Z,5.67
2022-11-16T09:25:53.961Z,5.27
2022-11-16T09:28:22.438Z,3.60
2022-11-16T09:30:51.163Z,3.30
2022-11-16T09:33:18.456Z,7.70
2022-11-16T09:35:45.488Z,5.67
2022-11-16T09:38:17.679Z,3.33
2022-11-16T09:40:51.151Z,4.13
2022-11-16T09:43:51.127Z,3.20
2022-11-16T09:46:43.951Z,2.50
2022-11-16T09:49:21.521Z,4.90
2022-11-16T09:51:52.920Z,3.83
2022-11-16T09:54:27.628Z,5.40
2022-11-16T09:56:58.884Z,7.83
2022-11-16T09:59:44.153Z,5.60
2022-11-16T10:02:22.015Z,5.73
2022-11-16T10:04:58.626Z,5.27
2022-11-16T10:07:37.241Z,6.90
2022-11-16T10:10:04.852Z,2.67
2022-11-16T10:12:46.304Z,3.60
2022-11-16T10:15:16.904Z,5.30
2022-11-16T10:18:17.338Z,3.17
2022-11-16T10:20:51.658Z,2.40
2022-11-16T10:23:45.668Z,3.50
2022-11-16T10:26:27.280Z,1.17
2022-11-16T10:29:12.736Z,4.10
2022-11-16T10:31:42.885Z,3.63
2022-11-16T10:34:18.408Z,2.63
2022-11-16T10:36:46.052Z,3.40
2022-11-16T10:39:14.984Z,4.40
2022-11-16T10:41:50.563Z,5.70
2022-11-16T10:44:31.744Z,5.00
2022-11-16T10:47:21.129Z,3.30
2022-11-16T10:49:52.265Z,5.17
2022-11-16T10:52:19.836Z,3.97
2022-11-16T10:54:46.732Z,3.40
2022-11-16T10:57:14.261Z,4.10
2022-11-16T10:59:47.172Z,4.30
2022-11-16T11:02:34.997Z,6.60
2022-11-16T11:05:22.637Z,5.33
2022-11-16T11:07:56.752Z,3.90
2022-11-16T11:17:42.589Z,3.93
2022-11-16T11:20:16.423Z,4.77
2022-11-16T11:22:56.701Z,5.00
2022-11-16T11:25:32.379Z,6.07
2022-11-16T11:28:17.859Z,6.40
2022-11-16T11:31:05.028Z,4.07
2022-11-16T11:33:36.462Z,3.53
2022-11-16T11:36:18.654Z,5.00
2022-11-16T11:39:21.170Z,3.77
2022-11-16T11:42:22.113Z,4.03
2022-11-16T11:44:57.184Z,6.03
2022-11-16T11:48:02.200Z,5.77
2022-11-16T11:51:22.200Z,5.10
2022-11-16T11:53:58.056Z,6.07
2022-11-16T11:56:27.591Z,4.63
2022-11-16T11:58:55.493Z,7.43
2022-11-16T12:01:44.161Z,4.27
2022-11-16T12:04:45.589Z,5.03
2022-11-16T12:07:27.425Z,6.23
2022-11-16T12:10:19.561Z,4.93
2022-11-16T12:13:14.952Z,7.27
2022-11-16T12:16:23.929Z,5.73
2022-11-16T12:19:39.429Z,4.07
2022-11-16T12:22:31.277Z,7.10
2022-11-16T12:25:21.833Z,4.33
2022-11-16T12:28:06.910Z,18.90
2022-11-16T12:30:44.298Z,9.90
2022-11-16T12:33:23.557Z,8.73
2022-11-16T12:35:53.595Z,8.60
2022-11-16T12:38:26.115Z,6.83
2022-11-16T12:41:11.691Z,5.07
2022-11-16T12:43:50.509Z,5.23
2022-11-16T12:46:57.007Z,6.10
2022-11-16T12:49:32.934Z,5.37
2022-11-16T12:52:17.704Z,7.73
2022-11-16T12:55:24.656Z,5.33
2022-11-16T12:57:49.426Z,5.73
2022-11-16T13:00:18.824Z,6.13
2022-11-16T13:03:22.216Z,6.90
2022-11-16T13:06:01.973Z,7.90
2022-11-16T13:08:31.544Z,7.17
2022-11-16T13:11:11.945Z,6.57
2022-11-16T13:13:40.622Z,6.77
2022-11-16T13:16:10.030Z,6.57
2022-11-16T13:18:41.635Z,7.47
2022-11-16T13:21:20.508Z,5.33
2022-11-16T13:24:13.343Z,6.87
2022-11-16T13:26:55.664Z,7.23
2022-11-16T13:29:30.420Z,6.03
2022-11-16T13:32:11.050Z,5.60
2022-11-16T13:34:40.483Z,6.43
2022-11-16T13:37:39.655Z,4.93
2022-11-16T13:40:06.576Z,6.00
2022-11-16T13:42:57.451Z,4.80
2022-11-16T13:45:31.772Z,5.20
2022-11-16T13:48:01.215Z,5.47
2022-11-16T13:50:38.052Z,6.20
2022-11-16T13:56:04.691Z,5.57
2022-11-16T13:58:34.379Z,5.73
2022-11-16T14:01:10.895Z,6.43
2022-11-16T14:03:40.145Z,7.43
2022-11-16T14:06:13.238Z,4.70
2022-11-16T14:08:40.522Z,4.70
2022-11-16T14:11:27.619Z,5.53
2022-11-16T14:13:55.172Z,5.10
2022-11-16T14:16:22.844Z,5.50
2022-11-16T14:19:01.250Z,4.80
2022-11-16T14:21:55.502Z,6.53
2022-11-16T14:24:41.863Z,6.43
2022-11-16T14:27:30.488Z,4.93
2022-11-16T14:30:15.956Z,6.63
2022-11-16T14:32:48.928Z,8.10
2022-11-16T14:35:42.513Z,7.50
2022-11-16T14:38:31.336Z,8.47
2022-11-16T14:41:00.173Z,6.67
2022-11-16T14:43:38.685Z,6.40
2022-11-16T14:46:09.992Z,8.00
2022-11-16T14:48:44.793Z,7.77
2022-11-16T14:51:14.992Z,4.53
2022-11-16T14:53:49.974Z,4.93
2022-11-16T14:56:18.658Z,7.30
2022-11-16T14:59:03.873Z,5.50
2022-11-16T15:01:36.701Z,6.27
2022-11-16T15:04:09.474Z,7.37
2022-11-16T15:07:04.178Z,8.47
2022-11-16T15:09:37.777Z,7.47
2022-11-16T15:12:30.677Z,11.43
2022-11-16T15:15:06.625Z,10.93
2022-11-16T15:17:35.129Z,14.30
2022-11-16T15:20:14.168Z,13.87
2022-11-16T15:22:46.530Z,12.23
2022-11-16T15:25:31.253Z,15.50
2022-11-16T15:28:00.949Z,8.07
2022-11-16T15:30:35.031Z,9.93
2022-11-16T15:33:09.095Z,11.37
2022-11-16T15:35:37.762Z,10.47
2022-11-16T15:38:18.952Z,10.93
2022-11-16T15:40:57.797Z,8.40
2022-11-16T15:44:01.516Z,9.40
2022-11-16T15:46:34.187Z,13.27
2022-11-16T15:49:02.121Z,14.87
2022-11-16T15:51:33.745Z,28.70
2022-11-16T15:54:22.949Z,17.23
2022-11-16T15:56:51.211Z,17.50
2022-11-16T15:59:38.578Z,25.03
2022-11-16T16:02:05.629Z,14.27
2022-11-16T16:04:33.207Z,15.20
2022-11-16T16:07:00.692Z,16.17
2022-11-16T16:09:37.988Z,20.37
2022-11-16T16:12:21.493Z,24.43
2022-11-16T16:14:50.894Z,23.37
2022-11-16T16:17:36.000Z,13.33
2022-11-16T16:20:06.326Z,7.87
2022-11-16T16:22:36.843Z,7.70
2022-11-16T16:25:06.493Z,8.93
2022-11-16T16:27:39.824Z,11.90
2022-11-16T16:30:08.662Z,8.70
2022-11-16T16:32:37.673Z,10.30
2022-11-16T16:35:08.006Z,9.43
2022-11-16T16:37:38.243Z,12.83
2022-11-16T16:40:06.142Z,18.33
2022-11-16T16:42:33.107Z,29.87
2022-11-16T16:45:02.298Z,12.90
2022-11-16T16:47:29.588Z,10.90
2022-11-16T16:49:56.906Z,12.43
2022-11-16T16:52:23.879Z,12.40
2022-11-16T16:54:51.036Z,12.87
2022-11-16T16:57:18.665Z,10.83
2022-11-16T16:59:48.229Z,13.43
2022-11-16T17:02:16.347Z,13.77
2022-11-16T17:04:46.778Z,11.00
2022-11-16T17:07:14.987Z,9.43
2022-11-16T17:09:42.571Z,4.57
2022-11-16T17:12:11.036Z,11.00
2022-11-16T17:14:38.377Z,13.10
2022-11-16T17:17:05.318Z,19.83
2022-11-16T17:19:32.600Z,19.13
2022-11-16T17:22:00.085Z,14.13
2022-11-16T17:24:27.400Z,17.87
2022-11-16T17:26:54.264Z,19.00
2022-11-16T17:29:21.442Z,13.57
2022-11-16T17:31:48.444Z,9.47
2022-11-16T17:34:15.635Z,10.23
2022-11-16T17:36:43.226Z,15.97
2022-11-16T17:39:10.571Z,16.47
2022-11-16T17:41:37.589Z,14.37
2022-11-16T17:44:05.105Z,14.17
2022-11-16T17:46:32.004Z,10.73
2022-11-16T17:48:59.318Z,11.67
2022-11-16T17:51:26.683Z,10.83
2022-11-16T17:53:54.081Z,12.93
2022-11-16T17:56:23.401Z,21.37
2022-11-16T17:58:52.183Z,20.20
2022-11-16T18:01:19.343Z,26.03
2022-11-16T18:03:47.307Z,12.33
2022-11-16T18:06:19.709Z,10.70
2022-11-16T18:08:47.687Z,10.50
2022-11-16T18:11:17.447Z,23.70
2022-11-16T18:13:45.309Z,22.33
2022-11-16T18:16:13.892Z,31.83
2022-11-16T18:18:42.008Z,15.93
2022-11-16T18:21:10.163Z,16.73
2022-11-16T18:23:38.592Z,20.87
2022-11-16T18:26:14.429Z,24.70
2022-11-16T18:28:41.645Z,15.20
2022-11-16T18:31:12.205Z,17.93
2022-11-16T18:33:39.860Z,15.80
2022-11-16T18:36:07.941Z,17.27
2022-11-16T18:38:36.514Z,14.80
2022-11-16T18:41:14.301Z,7.90
2022-11-16T18:43:50.408Z,11.33
2022-11-16T18:46:18.981Z,16.10
2022-11-16T18:48:46.901Z,11.77
2022-11-16T18:51:15.220Z,11.87
2022-11-16T18:53:42.538Z,10.33
2022-11-16T18:56:09.660Z,11.20
2022-11-16T18:58:50.402Z,13.20
2022-11-16T19:01:20.319Z,13.37
2022-11-16T19:03:47.871Z,10.83
2022-11-16T19:06:15.695Z,12.70
2022-11-16T19:08:43.504Z,11.33
2022-11-16T19:11:15.957Z,13.90
2022-11-16T19:13:44.534Z,8.93
2022-11-16T19:16:13.512Z,9.13
2022-11-16T19:18:40.869Z,10.10
2022-11-16T19:21:09.197Z,8.73
2022-11-16T19:23:42.986Z,12.30
2022-11-16T19:26:12.733Z,9.90
2022-11-16T19:28:45.668Z,10.80
2022-11-16T19:31:16.035Z,10.23
2022-11-16T19:33:44.571Z,11.17
2022-11-16T19:36:12.832Z,11.23
2022-11-16T19:38:40.642Z,11.00
2022-11-16T19:41:08.622Z,15.83
2022-11-16T19:43:36.035Z,13.63
2022-11-16T19:46:17.431Z,12.93
2022-11-16T19:48:46.998Z,12.13
2022-11-16T19:51:19.468Z,10.43
2022-11-16T19:53:47.282Z,10.07
2022-11-16T19:56:15.892Z,8.63
2022-11-16T19:58:43.938Z,11.97
2022-11-16T20:01:14.201Z,10.97
2022-11-16T20:03:42.285Z,10.03
2022-11-16T20:06:18.524Z,16.73
2022-11-16T20:08:50.797Z,14.27
2022-11-16T20:11:20.715Z,15.40
2022-11-16T20:13:49.107Z,7.37
2022-11-16T20:16:17.928Z,7.90
2022-11-16T20:18:45.901Z,7.27
2022-11-16T20:21:18.346Z,9.30
2022-11-16T20:23:45.691Z,7.63
2022-11-16T20:26:13.901Z,9.53
2022-11-16T20:28:42.957Z,9.00
2022-11-16T20:31:14.982Z,12.60
2022-11-16T20:33:49.018Z,13.13
2022-11-16T20:36:16.119Z,16.23
2022-11-16T20:38:43.244Z,12.57
2022-11-16T20:41:15.640Z,8.90
2022-11-16T20:43:44.440Z,11.13
2022-11-16T20:46:13.795Z,13.83
2022-11-16T20:48:42.650Z,11.30
2022-11-16T20:51:12.077Z,12.47
2022-11-16T20:53:39.446Z,9.87
2022-11-16T20:56:07.805Z,12.37
2022-11-16T20:58:35.348Z,10.50
2022-11-16T21:01:04.104Z,11.10
2022-11-16T21:03:31.908Z,10.60
2022-11-16T21:05:59.122Z,9.37
2022-11-16T21:08:26.695Z,11.17
2022-11-16T21:10:54.161Z,10.40
2022-11-16T21:13:40.029Z,9.10
2022-11-16T21:16:11.414Z,12.47
2022-11-16T21:18:40.052Z,8.70
2022-11-16T21:21:13.288Z,9.23
2022-11-16T21:23:51.486Z,10.13
2022-11-16T21:26:21.022Z,12.73
2022-11-16T21:28:48.259Z,11.60
2022-11-16T21:31:18.241Z,11.87
2022-11-16T21:33:47.211Z,11.10
2022-11-16T21:36:16.647Z,10.77
2022-11-16T21:38:44.533Z,9.27
2022-11-16T21:41:13.543Z,9.43
2022-11-16T21:43:41.532Z,9.77
2022-11-16T21:46:11.904Z,7.53
2022-11-16T21:48:39.668Z,8.27
2022-11-16T21:51:12.303Z,10.13
2022-11-16T21:53:40.181Z,10.73
2022-11-16T21:56:11.648Z,11.20
2022-11-16T21:58:40.085Z,13.40
2022-11-16T22:01:07.326Z,11.47
2022-11-16T22:03:35.187Z,13.90
2022-11-16T22:06:23.005Z,10.60
2022-11-16T22:08:50.735Z,9.97
2022-11-16T22:14:40.111Z,8.83
2022-11-16T22:17:08.600Z,8.73
2022-11-16T22:19:35.569Z,11.07
2022-11-16T22:22:02.829Z,7.47
2022-11-16T22:24:30.023Z,11.50
2022-11-16T22:26:57.421Z,10.37
2022-11-16T22:29:24.407Z,7.67
2022-11-16T22:31:51.706Z,9.90
2022-11-16T22:34:18.720Z,12.70
2022-11-16T22:36:46.087Z,7.83
2022-11-16T22:39:13.194Z,8.30
2022-11-16T22:41:40.746Z,9.83
2022-11-16T22:44:07.805Z,8.33
2022-11-16T22:46:35.373Z,7.87
2022-11-16T22:49:02.406Z,7.87
2022-11-16T22:51:30.534Z,8.73
2022-11-16T22:54:00.374Z,8.20
2022-11-16T22:56:29.248Z,8.73
2022-11-16T22:58:56.871Z,6.83
2022-11-16T23:01:24.733Z,10.70
2022-11-16T23:03:51.871Z,9.30
2022-11-16T23:06:19.352Z,8.03
2022-11-16T23:08:46.535Z,8.43
2022-11-16T23:11:35.874Z,7.97
2022-11-16T23:14:22.388Z,8.60
2022-11-16T23:16:50.200Z,7.77
2022-11-16T23:19:38.394Z,9.03
2022-11-16T23:22:25.573Z,6.73
2022-11-16T23:25:11.136Z,11.50
2022-11-16T23:27:56.278Z,6.87
2022-11-16T23:30:24.196Z,6.87
2022-11-16T23:32:51.805Z,6.93
2022-11-16T23:35:19.209Z,7.10
2022-11-16T23:38:00.594Z,7.30
2022-11-16T23:40:45.593Z,7.13
2022-11-16T23:43:31.525Z,6.37
2022-11-16T23:45:58.518Z,9.77
2022-11-16T23:48:25.839Z,7.17
2022-11-16T23:50:52.890Z,7.13
2022-11-16T23:53:20.170Z,5.63
2022-11-16T23:55:47.741Z,8.07
2022-11-16T23:58:15.727Z,7.57
